Kezdőlap
METAR-TAF:

METAR-TAF

Repülőterek :

Grant County Airport

Silver City, Új-Mexikó, Amerikai Egyesült Államok

földrajzi szélesség: 32-38N, földrajzi hosszúság: 108-09W, magasság: 1659 m

Jelenlegi meteorológiai megfigyelések

A jelentés 45 perccel ezelõtt készült, 01:55 UTC
Nyugati szél 12 kt széllökések: 19 kt
Hőmérséklet 25°C
Páratartalom 14%
Légköri nyomás 1015 hPa
Látótávolság: 16.1 km
Derült ég

METAR: KSVC 180155Z AUTO 27012G19KT 10SM CLR 25/M04 A2998 RMK AO2 T02501042

Idő: 20:40 (02:40 UTC)


TAF: hiányzik

Meteorológiai megfigyelések és előrejelzések több, mint 4000 repülőtéren (METAR és TAF jelentéseket).

A térképen piros és sárga pontok jelzik az elérhető meteorológiai állomásokat.

Mozgassa az egeret a pont fölött, hogy megjelenjen az állomás neve.

Azután kattintson az időjárási megfigyelések és előrejelzések megtekintéséhez.

A térkép megváltoztatása: kattintson a fekete keresztel jelölt zöld gombra ráközelítéshez, a vonallal jelölt zöld gombra távolításhoz, vagy a zöld nyilakra a szomszédos térképek eléréséhez.


METAR-TAF: